createdAt,value
2023-03-17T00:01:26.434Z,2.47
2023-03-17T00:05:31.738Z,2.40
2023-03-17T00:09:33.493Z,2.47
2023-03-17T00:13:36.661Z,2.57
2023-03-17T00:17:38.140Z,2.83
2023-03-17T00:21:39.625Z,2.47
2023-03-17T00:25:41.096Z,2.77
2023-03-17T00:29:44.464Z,2.87
2023-03-17T00:33:46.713Z,2.80
2023-03-17T00:37:49.396Z,2.90
2023-03-17T00:41:52.070Z,2.67
2023-03-17T00:45:54.894Z,3.30
2023-03-17T00:49:56.526Z,3.37
2023-03-17T00:53:58.064Z,3.57
2023-03-17T00:58:03.551Z,3.20
2023-03-17T01:02:06.621Z,3.30
2023-03-17T01:06:11.380Z,2.60
2023-03-17T01:10:15.345Z,2.60
2023-03-17T01:14:17.029Z,3.10
2023-03-17T01:18:21.856Z,3.10
2023-03-17T01:22:23.297Z,2.77
2023-03-17T01:26:26.102Z,2.37
2023-03-17T01:30:30.475Z,2.40
2023-03-17T01:34:33.878Z,2.00
2023-03-17T01:38:35.521Z,1.93
2023-03-17T01:42:37.267Z,2.03
2023-03-17T01:46:38.895Z,2.17
2023-03-17T01:50:42.242Z,2.33
2023-03-17T01:54:47.942Z,2.47
2023-03-17T01:58:53.643Z,2.43
2023-03-17T02:02:56.736Z,2.60
2023-03-17T02:07:01.689Z,2.50
2023-03-17T02:11:04.082Z,2.30
2023-03-17T02:15:06.779Z,2.20
2023-03-17T02:19:08.208Z,2.70
2023-03-17T02:23:11.310Z,2.63
2023-03-17T02:27:16.557Z,3.13
2023-03-17T02:31:18.315Z,2.40
2023-03-17T02:35:20.541Z,2.50
2023-03-17T02:39:23.775Z,2.63
2023-03-17T02:43:25.194Z,2.30
2023-03-17T02:47:26.661Z,2.10
2023-03-17T02:51:28.291Z,1.73
2023-03-17T02:55:31.156Z,1.83
2023-03-17T02:59:32.765Z,2.00
2023-03-17T03:03:34.187Z,2.03
2023-03-17T03:07:35.584Z,2.30
2023-03-17T03:11:38.665Z,2.10
2023-03-17T03:15:42.364Z,1.90
2023-03-17T03:19:44.045Z,1.90
2023-03-17T03:23:45.513Z,1.83
2023-03-17T03:27:48.256Z,2.00
2023-03-17T03:31:49.750Z,2.50
2023-03-17T03:35:51.632Z,2.00
2023-03-17T03:39:53.061Z,2.40
2023-03-17T03:43:55.986Z,2.30
2023-03-17T03:47:57.635Z,2.77
2023-03-17T03:51:59.231Z,2.57
2023-03-17T03:56:00.630Z,2.80
2023-03-17T04:00:04.308Z,2.40
2023-03-17T04:04:05.708Z,2.50
2023-03-17T04:08:07.800Z,2.70
2023-03-17T04:12:10.069Z,2.47
2023-03-17T04:16:13.150Z,2.80
2023-03-17T04:20:18.397Z,2.20
2023-03-17T04:24:20.094Z,2.23
2023-03-17T04:28:21.528Z,2.57
2023-03-17T04:32:27.063Z,2.50
2023-03-17T04:36:28.994Z,2.93
2023-03-17T04:40:30.685Z,2.60
2023-03-17T04:44:32.374Z,3.30
2023-03-17T04:48:35.665Z,3.00
2023-03-17T04:52:37.580Z,3.30
2023-03-17T04:56:39.557Z,3.40
2023-03-17T05:00:41.429Z,3.33
2023-03-17T05:04:55.782Z,2.87
2023-03-17T05:08:57.409Z,3.27
2023-03-17T05:13:00.484Z,3.37
2023-03-17T05:17:02.183Z,3.17
2023-03-17T05:21:06.365Z,3.00
2023-03-17T05:25:09.732Z,3.00
2023-03-17T05:29:11.197Z,3.20
2023-03-17T05:33:12.657Z,3.03
2023-03-17T05:37:15.536Z,2.90
2023-03-17T05:41:16.943Z,3.07
2023-03-17T05:45:18.975Z,3.00
2023-03-17T05:49:20.840Z,3.17
2023-03-17T05:53:23.726Z,3.70
2023-03-17T05:57:25.693Z,3.10
2023-03-17T06:01:27.890Z,3.57
2023-03-17T06:05:29.686Z,3.00
2023-03-17T06:09:32.727Z,3.00
2023-03-17T06:13:34.183Z,3.10
2023-03-17T06:17:36.167Z,3.20
2023-03-17T06:21:37.735Z,2.40
2023-03-17T06:25:40.669Z,2.87
2023-03-17T06:29:42.372Z,2.80
2023-03-17T06:33:43.872Z,3.17
2023-03-17T06:37:45.471Z,3.17
2023-03-17T06:41:48.965Z,2.90
2023-03-17T06:45:51.193Z,2.80
2023-03-17T06:49:52.850Z,2.60
2023-03-17T06:53:54.301Z,2.77
2023-03-17T06:57:57.070Z,2.90
2023-03-17T07:01:58.936Z,2.73
2023-03-17T07:06:00.571Z,2.80
2023-03-17T07:10:02.100Z,2.80
2023-03-17T07:14:04.926Z,2.70
2023-03-17T07:18:06.776Z,2.37
2023-03-17T07:22:10.456Z,2.40
2023-03-17T07:26:11.893Z,2.40
2023-03-17T07:30:15.707Z,2.70
2023-03-17T07:34:17.110Z,2.57
2023-03-17T07:38:19.727Z,2.43
2023-03-17T07:42:21.262Z,2.40
2023-03-17T07:46:24.359Z,2.40
2023-03-17T07:50:25.892Z,2.70
2023-03-17T07:54:27.327Z,2.30
2023-03-17T07:58:28.764Z,2.30
2023-03-17T08:02:31.806Z,2.43
2023-03-17T08:06:33.375Z,2.20
2023-03-17T08:10:35.505Z,2.10
2023-03-17T08:14:37.360Z,1.90
2023-03-17T08:18:40.149Z,1.97
2023-03-17T08:22:41.997Z,2.07
2023-03-17T08:26:43.442Z,2.30
2023-03-17T08:30:44.979Z,1.83
2023-03-17T08:34:47.885Z,1.90
2023-03-17T08:38:49.965Z,2.27
2023-03-17T08:42:51.410Z,2.10
2023-03-17T08:46:53.343Z,2.20
2023-03-17T08:50:56.452Z,2.30
2023-03-17T08:54:58.540Z,2.20
2023-03-17T08:59:00.506Z,1.93
2023-03-17T09:03:02.073Z,2.13
2023-03-17T09:07:05.491Z,2.30
2023-03-17T09:11:08.762Z,2.20
2023-03-17T09:15:11.922Z,2.20
2023-03-17T09:19:13.511Z,2.00
2023-03-17T09:23:16.292Z,2.20
2023-03-17T09:27:17.962Z,2.10
2023-03-17T09:31:19.600Z,2.10
2023-03-17T09:35:21.001Z,1.80
2023-03-17T09:39:23.799Z,2.17
2023-03-17T09:43:31.426Z,2.20
2023-03-17T09:47:54.783Z,2.30
2023-03-17T09:51:56.478Z,2.40
2023-03-17T09:56:02.451Z,2.00
2023-03-17T10:00:12.144Z,2.10
2023-03-17T10:04:14.247Z,1.97
2023-03-17T10:08:30.630Z,1.80
2023-03-17T10:12:45.377Z,1.80
2023-03-17T10:16:52.305Z,1.90
2023-03-17T10:20:58.595Z,2.53
2023-03-17T10:25:04.250Z,1.97
2023-03-17T10:29:13.684Z,2.00
2023-03-17T10:33:15.119Z,1.60
2023-03-17T10:37:20.099Z,2.33
2023-03-17T10:41:21.557Z,1.93
2023-03-17T10:45:28.405Z,1.90
2023-03-17T10:49:35.619Z,1.80
2023-03-17T10:53:38.831Z,2.10
2023-03-17T10:57:49.283Z,2.63
2023-03-17T11:01:54.325Z,2.00
2023-03-17T11:05:57.851Z,2.10
2023-03-17T11:10:02.161Z,2.10
2023-03-17T11:14:03.973Z,2.20
2023-03-17T11:18:14.365Z,2.20
2023-03-17T11:22:20.887Z,2.43
2023-03-17T11:26:47.351Z,1.90
2023-03-17T11:30:59.346Z,2.20
2023-03-17T11:35:19.399Z,2.13
2023-03-17T11:39:26.396Z,2.00
2023-03-17T11:43:32.697Z,2.20
2023-03-17T11:48:03.045Z,2.10
2023-03-17T11:52:18.584Z,2.10
2023-03-17T11:56:23.710Z,1.90
2023-03-17T12:00:31.071Z,2.27
2023-03-17T12:04:36.335Z,2.10
2023-03-17T12:08:44.926Z,1.90
2023-03-17T12:12:51.593Z,2.10
2023-03-17T12:16:56.873Z,2.20
2023-03-17T12:21:00.734Z,2.33
2023-03-17T12:25:11.672Z,2.40
2023-03-17T12:29:17.208Z,1.97
2023-03-17T12:33:24.569Z,2.10
2023-03-17T12:37:27.450Z,2.10
2023-03-17T12:41:41.478Z,2.20
2023-03-17T12:46:04.492Z,2.00
2023-03-17T12:50:36.717Z,2.10
2023-03-17T12:54:43.706Z,1.90
2023-03-17T12:58:50.489Z,2.20
2023-03-17T13:03:09.133Z,2.20
2023-03-17T13:07:15.641Z,2.10
2023-03-17T13:11:19.682Z,2.30
2023-03-17T13:15:26.641Z,2.10
2023-03-17T13:19:31.550Z,2.23
2023-03-17T13:23:34.988Z,2.27
2023-03-17T13:27:45.170Z,2.13
2023-03-17T13:31:49.362Z,2.00
2023-03-17T13:36:06.599Z,2.07
2023-03-17T13:40:19.575Z,1.90
2023-03-17T13:44:35.333Z,2.00
2023-03-17T13:48:40.389Z,2.00
2023-03-17T13:52:46.898Z,2.00
2023-03-17T13:56:50.468Z,2.10
2023-03-17T14:00:59.100Z,2.17
2023-03-17T14:05:07.686Z,1.80
2023-03-17T14:09:19.320Z,1.90
2023-03-17T14:13:24.208Z,1.97
2023-03-17T14:17:31.733Z,2.23
2023-03-17T14:21:34.597Z,1.87
2023-03-17T14:25:38.512Z,1.90
2023-03-17T14:29:40.373Z,2.00
2023-03-17T14:33:42.317Z,1.57
2023-03-17T14:37:45.718Z,1.70
2023-03-17T14:41:57.388Z,1.83
2023-03-17T14:46:01.115Z,2.07
2023-03-17T14:50:03.007Z,2.00
2023-03-17T14:54:12.814Z,2.30
2023-03-17T14:58:21.844Z,4.87
2023-03-17T15:02:28.214Z,1.87
2023-03-17T15:06:30.554Z,3.47
2023-03-17T15:10:42.145Z,1.70
2023-03-17T15:14:45.688Z,1.33
2023-03-17T15:18:48.201Z,1.80
2023-03-17T15:22:57.613Z,1.80
2023-03-17T15:27:02.571Z,1.50
2023-03-17T15:31:12.299Z,2.87
2023-03-17T15:35:14.064Z,4.00
2023-03-17T15:39:15.714Z,1.80
2023-03-17T15:43:19.955Z,1.63
2023-03-17T15:47:25.314Z,3.30
2023-03-17T15:51:27.193Z,2.30
2023-03-17T15:55:30.467Z,2.17
2023-03-17T15:59:33.969Z,1.87
2023-03-17T16:03:36.313Z,1.80
2023-03-17T16:07:38.327Z,1.70
2023-03-17T16:11:40.540Z,1.83
2023-03-17T16:15:48.892Z,1.67
2023-03-17T16:19:51.277Z,1.60
2023-03-17T16:23:53.390Z,1.80
2023-03-17T16:27:58.069Z,1.47
2023-03-17T16:32:00.900Z,1.70
2023-03-17T16:36:02.917Z,1.77
2023-03-17T16:40:05.584Z,1.70
2023-03-17T16:44:22.898Z,1.53
2023-03-17T16:48:26.573Z,1.67
2023-03-17T16:52:28.070Z,1.50
2023-03-17T16:56:29.666Z,1.77
2023-03-17T17:00:31.866Z,1.70
2023-03-17T17:04:35.135Z,1.80
2023-03-17T17:08:36.697Z,1.80
2023-03-17T17:19:43.868Z,1.90
2023-03-17T17:23:45.658Z,1.60
2023-03-17T17:27:48.199Z,1.70
2023-03-17T17:31:52.533Z,1.80
2023-03-17T17:35:54.306Z,2.03
2023-03-17T17:39:55.744Z,1.70
2023-03-17T17:44:00.763Z,2.00
2023-03-17T17:48:04.090Z,1.67
2023-03-17T17:52:05.913Z,2.40
2023-03-17T17:56:07.696Z,1.90
2023-03-17T18:00:13.899Z,1.90
2023-03-17T18:04:16.903Z,1.73
2023-03-17T18:08:18.407Z,2.13
2023-03-17T18:12:20.093Z,2.90
2023-03-17T18:16:21.794Z,2.10
2023-03-17T18:20:25.676Z,2.13
2023-03-17T18:24:27.275Z,1.80
2023-03-17T18:28:29.140Z,2.13
2023-03-17T18:32:31.266Z,2.27
2023-03-17T18:36:34.655Z,1.70
2023-03-17T18:40:36.682Z,1.80
2023-03-17T18:44:38.774Z,2.40
2023-03-17T18:48:40.437Z,2.90
2023-03-17T18:52:43.518Z,2.07
2023-03-17T18:56:45.107Z,2.20
2023-03-17T19:00:47.977Z,2.10
2023-03-17T19:04:49.672Z,2.20
2023-03-17T19:08:52.851Z,2.00
2023-03-17T19:12:54.493Z,1.77
2023-03-17T19:16:55.964Z,1.80
2023-03-17T19:20:57.675Z,1.87
2023-03-17T19:25:00.705Z,1.93
2023-03-17T19:29:02.150Z,1.73
2023-03-17T19:33:03.718Z,1.60
2023-03-17T19:37:05.227Z,1.93
2023-03-17T19:41:10.295Z,1.97
2023-03-17T19:45:12.084Z,2.07
2023-03-17T19:49:13.745Z,1.77
2023-03-17T19:53:15.496Z,1.70
2023-03-17T19:57:18.285Z,1.67
2023-03-17T20:01:19.877Z,1.80
2023-03-17T20:05:21.511Z,2.10
2023-03-17T20:09:23.340Z,2.20
2023-03-17T20:13:26.175Z,1.90
2023-03-17T20:17:27.616Z,2.30
2023-03-17T20:21:29.254Z,1.90
2023-03-17T20:25:30.875Z,1.90
2023-03-17T20:29:33.698Z,1.80
2023-03-17T20:33:35.267Z,1.93
2023-03-17T20:37:36.883Z,1.90
2023-03-17T20:41:38.441Z,1.97
2023-03-17T20:45:41.477Z,2.13
2023-03-17T20:49:42.904Z,1.90
2023-03-17T20:53:45.656Z,1.80
2023-03-17T20:57:47.049Z,2.03
2023-03-17T21:01:50.628Z,2.10
2023-03-17T21:05:52.099Z,1.83
2023-03-17T21:09:53.514Z,3.67
2023-03-17T21:13:55.215Z,2.40
2023-03-17T21:17:59.398Z,2.60
2023-03-17T21:22:00.843Z,2.03
2023-03-17T21:26:02.297Z,2.73
2023-03-17T21:30:04.756Z,2.40
2023-03-17T21:34:07.829Z,1.87
2023-03-17T21:38:09.399Z,1.90
2023-03-17T21:42:10.815Z,2.00
2023-03-17T21:46:12.497Z,2.00
2023-03-17T21:50:17.621Z,2.10
2023-03-17T21:54:20.005Z,2.00
2023-03-17T21:58:21.523Z,1.93
2023-03-17T22:02:23.724Z,1.80
2023-03-17T22:06:26.628Z,1.73
2023-03-17T22:10:28.611Z,2.40
2023-03-17T22:14:30.282Z,2.27
2023-03-17T22:18:32.251Z,2.13
2023-03-17T22:22:35.078Z,1.93
2023-03-17T22:26:36.477Z,2.00
2023-03-17T22:30:38.607Z,2.10
2023-03-17T22:34:40.072Z,2.10
2023-03-17T22:38:42.932Z,2.73
2023-03-17T22:42:44.613Z,2.07
2023-03-17T22:46:46.143Z,1.90
2023-03-17T22:50:47.787Z,2.10
2023-03-17T22:54:50.534Z,1.63
2023-03-17T22:58:52.467Z,2.67
2023-03-17T23:02:53.845Z,2.30
2023-03-17T23:06:55.311Z,2.00
2023-03-17T23:11:00.727Z,2.20
2023-03-17T23:15:02.470Z,2.10
2023-03-17T23:19:04.014Z,1.83
2023-03-17T23:23:05.822Z,1.90
2023-03-17T23:27:08.906Z,2.10
2023-03-17T23:31:10.555Z,2.50
2023-03-17T23:35:12.930Z,2.20
2023-03-17T23:39:14.287Z,1.97
2023-03-17T23:43:17.218Z,2.30
2023-03-17T23:47:18.683Z,2.17
2023-03-17T23:51:20.385Z,2.50
2023-03-17T23:55:21.815Z,2.23
2023-03-17T23:59:24.575Z,2.23
